Terminal Aerodrome Forecast
Issued by NWS Buffalo, NY

Home | Current Version | Previous Version | Text Only | Print | Product List | Glossary On
Versions: 1 2 3 4 5 6 7 8 9 10 11 12 13 14 15 16 17 18 19 20 21 22 23 24 25
000
FTUS41 KBUF 291503 AAB
TAFBUF
TAF AMD
KBUF 291503Z 2915/3012 23008KT P6SM BKN090
     FM300000 21007KT P6SM BKN120
     FM300600 21009KT P6SM BKN045
     FM300900 22010KT P6SM BKN012
     FM301100 24010KT P6SM BKN250=

USA.gov is the U.S. government's official web portal to all federal, state and local government web resources and services.